createdAt,value
2022-09-18T00:00:13.312Z,98053.97
2022-09-18T00:03:02.299Z,98056.30
2022-09-18T00:05:30.641Z,98057.66
2022-09-18T00:08:01.385Z,98056.94
2022-09-18T00:10:30.087Z,98055.00
2022-09-18T00:12:58.704Z,98057.13
2022-09-18T00:15:27.867Z,98057.80
2022-09-18T00:17:57.499Z,98055.85
2022-09-18T00:20:28.704Z,98056.57
2022-09-18T00:22:58.479Z,98058.31
2022-09-18T00:26:07.979Z,98059.41
2022-09-18T00:28:44.801Z,98057.10
2022-09-18T00:31:20.414Z,98054.47
2022-09-18T00:33:50.449Z,98056.92
2022-09-18T00:36:20.670Z,98057.49
2022-09-18T00:38:50.164Z,98056.49
2022-09-18T00:41:24.826Z,98056.95
2022-09-18T00:43:57.134Z,98055.41
2022-09-18T00:46:51.131Z,98053.23
2022-09-18T00:49:26.235Z,98054.33
2022-09-18T00:51:59.320Z,98057.52
2022-09-18T00:54:44.104Z,98055.19
2022-09-18T00:57:17.643Z,98056.15
2022-09-18T00:59:49.886Z,98053.07
2022-09-18T01:02:19.208Z,98047.69
2022-09-18T01:04:49.422Z,98044.27
2022-09-18T01:07:49.006Z,98044.98
2022-09-18T01:10:44.053Z,98044.04
2022-09-18T01:13:48.954Z,98040.35
2022-09-18T01:17:05.392Z,98038.40
2022-09-18T01:20:07.667Z,98033.89
2022-09-18T01:23:06.100Z,98034.60
2022-09-18T01:26:14.737Z,98039.88
2022-09-18T01:29:13.131Z,98041.05
2022-09-18T01:31:52.080Z,98043.96
2022-09-18T01:34:54.787Z,98041.70
2022-09-18T01:37:39.316Z,98038.89
2022-09-18T01:40:23.991Z,98037.95
2022-09-18T01:42:56.682Z,98040.44
2022-09-18T01:45:34.772Z,98043.05
2022-09-18T01:48:07.964Z,98040.41
2022-09-18T01:50:47.689Z,98043.33
2022-09-18T01:53:25.364Z,98040.79
2022-09-18T01:56:02.324Z,98037.00
2022-09-18T01:58:34.592Z,98039.10
2022-09-18T02:01:13.336Z,98043.03
2022-09-18T02:03:55.187Z,98043.65
2022-09-18T02:06:39.907Z,98048.02
2022-09-18T02:09:10.861Z,98047.83
2022-09-18T02:11:47.320Z,98041.55
2022-09-18T02:14:22.524Z,98038.23
2022-09-18T02:17:23.352Z,98040.69
2022-09-18T02:19:58.143Z,98039.67
2022-09-18T02:22:30.729Z,98038.22
2022-09-18T02:25:11.432Z,98035.80
2022-09-18T02:27:43.845Z,98032.40
2022-09-18T02:30:12.655Z,98028.34
2022-09-18T02:32:43.834Z,98025.36
2022-09-18T02:35:15.295Z,98024.98
2022-09-18T02:38:34.756Z,98024.21
2022-09-18T02:41:32.682Z,98017.68
2022-09-18T02:45:12.094Z,98012.81
2022-09-18T02:48:17.510Z,98013.95
2022-09-18T02:51:07.489Z,98015.90
2022-09-18T02:53:58.985Z,98018.73
2022-09-18T02:56:45.112Z,98021.98
2022-09-18T02:59:35.041Z,98020.03
2022-09-18T03:02:04.459Z,98015.42
2022-09-18T03:04:38.932Z,98016.06
2022-09-18T03:07:14.812Z,98017.27
2022-09-18T03:09:45.805Z,98018.34
2022-09-18T03:12:16.189Z,98016.21
2022-09-18T03:14:49.594Z,98019.60
2022-09-18T03:17:18.985Z,98018.83
2022-09-18T03:19:50.226Z,98018.36
2022-09-18T03:22:18.725Z,98019.79
2022-09-18T03:24:48.116Z,98016.04
2022-09-18T03:27:18.814Z,98011.29
2022-09-18T03:29:47.593Z,98012.34
2022-09-18T03:32:18.586Z,98015.52
2022-09-18T03:34:49.375Z,98018.08
2022-09-18T03:37:21.286Z,98018.09
2022-09-18T03:39:50.208Z,98018.95
2022-09-18T03:42:20.550Z,98018.67
2022-09-18T03:44:49.708Z,98014.43
2022-09-18T03:47:27.835Z,98012.14
2022-09-18T03:50:04.789Z,98013.46
2022-09-18T03:52:35.878Z,98013.35
2022-09-18T03:55:14.885Z,98009.95
2022-09-18T03:58:21.832Z,98010.66
2022-09-18T04:01:16.653Z,98014.70
2022-09-18T04:04:09.152Z,98016.88
2022-09-18T04:06:53.924Z,98021.05
2022-09-18T04:09:41.468Z,98024.90
2022-09-18T04:12:11.108Z,98023.35
2022-09-18T04:14:40.823Z,98025.80
2022-09-18T04:17:11.369Z,98025.85
2022-09-18T04:19:40.046Z,98029.52
2022-09-18T04:22:10.720Z,98027.27
2022-09-18T04:24:39.875Z,98025.10
2022-09-18T04:27:08.092Z,98027.84
2022-09-18T04:29:36.273Z,98031.20
2022-09-18T04:32:05.817Z,98027.48
2022-09-18T04:34:34.011Z,98026.34
2022-09-18T04:37:01.903Z,98027.31
2022-09-18T04:40:15.879Z,98025.58
2022-09-18T04:42:45.408Z,98029.20
2022-09-18T04:45:13.978Z,98027.61
2022-09-18T04:47:44.725Z,98031.09
2022-09-18T04:50:18.835Z,98027.83
2022-09-18T04:53:35.542Z,98029.84
2022-09-18T04:56:05.455Z,98032.46
2022-09-18T04:58:37.631Z,98039.50
2022-09-18T05:01:09.549Z,98039.37
2022-09-18T05:03:42.147Z,98034.86
2022-09-18T05:06:14.118Z,98029.82
2022-09-18T05:08:42.667Z,98032.01
2022-09-18T05:11:11.221Z,98035.27
2022-09-18T05:13:40.823Z,98040.98
2022-09-18T05:16:14.348Z,98039.20
2022-09-18T05:18:43.771Z,98041.75
2022-09-18T05:21:12.123Z,98041.40
2022-09-18T05:23:41.189Z,98041.70
2022-09-18T05:26:22.499Z,98042.00
2022-09-18T05:29:02.526Z,98043.58
2022-09-18T05:31:30.884Z,98039.18
2022-09-18T05:34:07.576Z,98040.27
2022-09-18T05:36:35.866Z,98038.05
2022-09-18T05:39:04.953Z,98040.94
2022-09-18T05:41:37.969Z,98040.26
2022-09-18T05:44:06.314Z,98038.77
2022-09-18T05:46:35.387Z,98042.21
2022-09-18T05:49:06.543Z,98041.42
2022-09-18T05:51:36.529Z,98041.73
2022-09-18T05:54:06.633Z,98041.80
2022-09-18T05:56:44.732Z,98039.69
2022-09-18T05:59:13.689Z,98039.45
2022-09-18T06:01:46.988Z,98042.19
2022-09-18T06:04:25.198Z,98049.47
2022-09-18T06:06:57.226Z,98049.86
2022-09-18T06:09:26.470Z,98046.59
2022-09-18T06:11:54.808Z,98053.23
2022-09-18T06:14:23.262Z,98053.95
2022-09-18T06:16:53.914Z,98053.38
2022-09-18T06:19:24.095Z,98056.29
2022-09-18T06:21:53.456Z,98057.12
2022-09-18T06:24:21.827Z,98059.04
2022-09-18T06:27:06.301Z,98059.33
2022-09-18T06:29:34.247Z,98056.79
2022-09-18T06:32:34.954Z,98056.27
2022-09-18T06:35:04.644Z,98059.69
2022-09-18T06:37:32.965Z,98058.09
2022-09-18T06:40:14.050Z,98063.12
2022-09-18T06:42:58.051Z,98055.89
2022-09-18T06:45:52.506Z,98056.98
2022-09-18T06:48:26.666Z,98058.42
2022-09-18T06:50:57.696Z,98056.80
2022-09-18T06:53:27.918Z,98057.30
2022-09-18T06:56:02.541Z,98054.20
2022-09-18T06:58:33.708Z,98057.80
2022-09-18T07:01:02.666Z,98055.40
2022-09-18T07:03:39.316Z,98060.73
2022-09-18T07:06:19.946Z,98063.08
2022-09-18T07:08:49.870Z,98066.68
2022-09-18T07:11:26.325Z,98069.73
2022-09-18T07:13:55.833Z,98070.38
2022-09-18T07:16:23.668Z,98073.45
2022-09-18T07:18:53.658Z,98077.27
2022-09-18T07:21:21.630Z,98080.84
2022-09-18T07:23:49.753Z,98081.96
2022-09-18T07:26:19.339Z,98085.29
2022-09-18T07:28:48.448Z,98084.65
2022-09-18T07:31:26.898Z,98089.27
2022-09-18T07:33:56.461Z,98099.41
2022-09-18T07:36:28.060Z,98088.00
2022-09-18T07:38:56.715Z,98102.20
2022-09-18T07:41:28.011Z,98101.79
2022-09-18T07:43:56.408Z,98114.33
2022-09-18T07:46:27.446Z,98118.41
2022-09-18T07:49:00.036Z,98116.69
2022-09-18T07:51:30.297Z,98125.11
2022-09-18T07:53:59.456Z,98125.55
2022-09-18T07:56:49.198Z,98127.36
2022-09-18T07:59:20.080Z,98137.52
2022-09-18T08:01:55.950Z,98138.63
2022-09-18T08:04:26.172Z,98145.83
2022-09-18T08:07:04.493Z,98144.14
2022-09-18T08:09:52.257Z,98144.80
2022-09-18T08:12:39.369Z,98147.55
2022-09-18T08:15:26.043Z,98152.44
2022-09-18T08:18:13.058Z,98144.95
2022-09-18T08:21:12.120Z,98149.38
2022-09-18T08:23:47.415Z,98155.27
2022-09-18T08:26:21.430Z,98155.23
2022-09-18T08:28:54.168Z,98160.56
2022-09-18T08:31:24.819Z,98162.59
2022-09-18T08:33:58.044Z,98164.91
2022-09-18T08:36:28.951Z,98166.31
2022-09-18T08:39:11.127Z,98168.63
2022-09-18T08:42:39.581Z,98175.08
2022-09-18T08:45:17.217Z,98181.48
2022-09-18T08:47:56.171Z,98187.34
2022-09-18T08:50:38.222Z,98191.83
2022-09-18T08:53:34.431Z,98187.38
2022-09-18T08:56:41.462Z,98186.16
2022-09-18T08:59:36.644Z,98189.31
2022-09-18T09:02:33.551Z,98191.50
2022-09-18T09:05:13.514Z,98195.77
2022-09-18T09:08:17.483Z,98188.05
2022-09-18T09:11:34.613Z,98190.61
2022-09-18T09:14:55.516Z,98197.02
2022-09-18T09:17:47.823Z,98205.02
2022-09-18T09:20:24.027Z,98211.52
2022-09-18T09:23:08.318Z,98209.76
2022-09-18T09:26:17.528Z,98215.48
2022-09-18T09:29:13.622Z,98214.12
2022-09-18T09:32:21.520Z,98218.98
2022-09-18T09:35:38.313Z,98220.04
2022-09-18T09:38:50.709Z,98218.36
2022-09-18T09:41:29.343Z,98216.67
2022-09-18T09:44:05.243Z,98218.16
2022-09-18T09:46:46.631Z,98222.17
2022-09-18T09:49:27.799Z,98222.36
2022-09-18T09:52:18.423Z,98218.50
2022-09-18T09:54:49.871Z,98235.19
2022-09-18T09:57:41.325Z,98231.04
2022-09-18T10:00:20.244Z,98234.20
2022-09-18T10:03:20.410Z,98242.00
2022-09-18T10:06:05.914Z,98243.00
2022-09-18T10:08:46.883Z,98240.61
2022-09-18T10:11:18.056Z,98246.38
2022-09-18T10:14:06.894Z,98250.61
2022-09-18T10:16:39.385Z,98253.35
2022-09-18T10:19:14.616Z,98249.13
2022-09-18T10:21:43.180Z,98250.34
2022-09-18T10:24:34.945Z,98250.38
2022-09-18T10:27:12.435Z,98249.58
2022-09-18T10:29:43.106Z,98250.73
2022-09-18T10:32:32.775Z,98253.66
2022-09-18T10:35:01.469Z,98264.97
2022-09-18T10:37:40.973Z,98258.73
2022-09-18T10:40:31.918Z,98256.95
2022-09-18T10:43:02.839Z,98260.52
2022-09-18T10:45:38.789Z,98264.89
2022-09-18T10:48:28.028Z,98270.00
2022-09-18T10:50:59.211Z,98264.64
2022-09-18T10:53:39.019Z,98256.05
2022-09-18T10:56:18.049Z,98257.55
2022-09-18T10:58:46.848Z,98262.16
2022-09-18T11:01:16.607Z,98268.02
2022-09-18T11:03:59.549Z,98251.45
2022-09-18T11:06:32.532Z,98254.39
2022-09-18T11:09:11.201Z,98264.13
2022-09-18T11:11:46.079Z,98265.10
2022-09-18T11:14:31.337Z,98275.27
2022-09-18T11:17:05.247Z,98271.95
2022-09-18T11:19:39.513Z,98260.27
2022-09-18T11:22:50.202Z,98265.93
2022-09-18T11:25:30.541Z,98266.80
2022-09-18T11:28:29.141Z,98269.33
2022-09-18T11:31:20.180Z,98261.38
2022-09-18T11:33:56.894Z,98258.19
2022-09-18T11:36:33.725Z,98249.63
2022-09-18T11:39:15.571Z,98244.51
2022-09-18T11:41:45.058Z,98253.06
2022-09-18T11:44:19.573Z,98254.83
2022-09-18T11:47:17.875Z,98257.77
2022-09-18T11:49:50.303Z,98258.88
2022-09-18T11:52:26.694Z,98248.85
2022-09-18T11:55:19.220Z,98250.77
2022-09-18T11:58:05.813Z,98250.02
2022-09-18T12:00:44.492Z,98247.09
2022-09-18T12:03:36.050Z,98245.92
2022-09-18T12:06:15.552Z,98246.42
2022-09-18T12:09:14.053Z,98247.42
2022-09-18T12:11:51.601Z,98252.84
2022-09-18T12:14:50.130Z,98258.16
2022-09-18T12:17:47.674Z,98257.70
2022-09-18T12:20:26.770Z,98255.40
2022-09-18T12:22:57.354Z,98252.58
2022-09-18T12:25:34.043Z,98260.96
2022-09-18T12:29:02.880Z,98274.22
2022-09-18T12:32:35.984Z,98280.36
2022-09-18T12:35:34.365Z,98281.91
2022-09-18T12:38:20.343Z,98281.67
2022-09-18T12:41:01.066Z,98276.71
2022-09-18T12:43:39.127Z,98275.80
2022-09-18T12:46:21.576Z,98273.73
2022-09-18T12:49:10.671Z,98272.36
2022-09-18T12:51:44.837Z,98274.35
2022-09-18T12:54:19.592Z,98268.11
2022-09-18T12:57:24.208Z,98269.89
2022-09-18T13:00:08.932Z,98265.43
2022-09-18T13:02:55.359Z,98261.07
2022-09-18T13:05:32.758Z,98262.98
2022-09-18T13:08:26.148Z,98262.20
2022-09-18T13:11:00.222Z,98261.50
2022-09-18T13:13:43.566Z,98253.64
2022-09-18T13:16:18.206Z,98254.59
2022-09-18T13:19:15.848Z,98256.41
2022-09-18T13:21:46.152Z,98251.60
2022-09-18T13:24:19.757Z,98255.48
2022-09-18T13:26:50.190Z,98253.05
2022-09-18T13:30:07.347Z,98251.06
2022-09-18T13:32:39.614Z,98252.76
2022-09-18T13:35:21.597Z,98258.38
2022-09-18T13:38:10.622Z,98254.60
2022-09-18T13:40:44.246Z,98248.55
2022-09-18T13:43:25.139Z,98240.80
2022-09-18T13:45:54.228Z,98245.16
2022-09-18T13:48:36.628Z,98245.19
2022-09-18T13:51:07.262Z,98244.80
2022-09-18T13:53:42.624Z,98246.15
2022-09-18T13:56:14.217Z,98251.74
2022-09-18T13:58:56.179Z,98248.84
2022-09-18T14:01:43.070Z,98243.77
2022-09-18T14:04:39.631Z,98245.76
2022-09-18T14:07:33.044Z,98250.67
2022-09-18T14:10:05.701Z,98252.24
2022-09-18T14:12:35.673Z,98257.00
2022-09-18T14:15:17.650Z,98251.77
2022-09-18T14:18:04.758Z,98250.10
2022-09-18T14:20:33.497Z,98243.95
2022-09-18T14:23:36.341Z,98239.38
2022-09-18T14:26:29.895Z,98237.84
2022-09-18T14:29:16.648Z,98237.48
2022-09-18T14:31:45.384Z,98236.45
2022-09-18T14:34:32.503Z,98227.84
2022-09-18T14:37:03.820Z,98225.95
2022-09-18T14:39:36.969Z,98225.36
2022-09-18T14:42:18.823Z,98219.17
2022-09-18T14:44:53.705Z,98224.27
2022-09-18T14:47:25.801Z,98229.39
2022-09-18T14:49:54.014Z,98229.78
2022-09-18T14:52:26.789Z,98226.02
2022-09-18T14:54:57.488Z,98231.54
2022-09-18T14:57:42.018Z,98235.27
2022-09-18T15:00:19.312Z,98231.14
2022-09-18T15:02:53.120Z,98230.96
2022-09-18T15:05:22.603Z,98232.77
2022-09-18T15:08:00.477Z,98221.68
2022-09-18T15:10:29.125Z,98219.82
2022-09-18T15:12:58.618Z,98219.36
2022-09-18T15:15:39.635Z,98226.42
2022-09-18T15:18:23.918Z,98231.96
2022-09-18T15:20:55.889Z,98240.60
2022-09-18T15:23:36.711Z,98245.29
2022-09-18T15:26:13.581Z,98242.73
2022-09-18T15:28:46.575Z,98246.75
2022-09-18T15:31:18.731Z,98247.23
2022-09-18T15:33:56.454Z,98244.44
2022-09-18T15:36:32.231Z,98243.64
2022-09-18T15:39:00.749Z,98245.06
2022-09-18T15:41:36.897Z,98242.27
2022-09-18T15:44:06.678Z,98240.30
2022-09-18T15:46:37.112Z,98240.05
2022-09-18T15:49:28.557Z,98241.92
2022-09-18T15:51:56.751Z,98236.57
2022-09-18T15:54:26.849Z,98236.50
2022-09-18T15:56:57.830Z,98239.94
2022-09-18T15:59:35.973Z,98234.61
2022-09-18T16:02:37.744Z,98237.65
2022-09-18T16:05:11.782Z,98238.94
2022-09-18T16:07:57.594Z,98240.05
2022-09-18T16:10:44.306Z,98237.92
2022-09-18T16:13:34.214Z,98234.01
2022-09-18T16:16:08.926Z,98244.41
2022-09-18T16:18:56.733Z,98255.38
2022-09-18T16:21:29.727Z,98259.80
2022-09-18T16:24:01.567Z,98263.25
2022-09-18T16:26:36.422Z,98269.02
2022-09-18T16:29:13.711Z,98272.77
2022-09-18T16:31:41.824Z,98277.68
2022-09-18T16:34:27.907Z,98270.40
2022-09-18T16:36:56.990Z,98261.79
2022-09-18T16:39:27.804Z,98257.66
2022-09-18T16:41:55.826Z,98262.55
2022-09-18T16:44:25.208Z,98265.48
2022-09-18T16:47:02.133Z,98250.42
2022-09-18T16:49:37.438Z,98249.27
2022-09-18T16:52:06.033Z,98251.81
2022-09-18T16:54:33.955Z,98252.70
2022-09-18T16:57:13.038Z,98250.45
2022-09-18T16:59:43.522Z,98245.30
2022-09-18T17:02:17.100Z,98242.84
2022-09-18T17:04:44.961Z,98242.34
2022-09-18T17:07:13.031Z,98244.14
2022-09-18T17:09:41.888Z,98250.35
2022-09-18T17:12:10.447Z,98252.52
2022-09-18T17:14:38.753Z,98258.11
2022-09-18T17:17:06.949Z,98263.36
2022-09-18T17:19:35.996Z,98270.03
2022-09-18T17:22:05.083Z,98276.20
2022-09-18T17:24:33.952Z,98274.55
2022-09-18T17:27:03.084Z,98281.64
2022-09-18T17:29:31.352Z,98281.20
2022-09-18T17:32:00.067Z,98282.77
2022-09-18T17:34:29.586Z,98278.41
2022-09-18T17:36:59.085Z,98277.79
2022-09-18T17:39:28.105Z,98278.08
2022-09-18T17:41:56.697Z,98275.63
2022-09-18T17:44:25.188Z,98276.61
2022-09-18T17:46:54.149Z,98282.31
2022-09-18T17:49:22.272Z,98288.65
2022-09-18T17:51:50.661Z,98285.11
2022-09-18T17:54:19.295Z,98279.65
2022-09-18T17:56:47.619Z,98277.23
2022-09-18T17:59:16.249Z,98277.95
2022-09-18T18:01:46.889Z,98280.90
2022-09-18T18:04:15.659Z,98281.73
2022-09-18T18:06:48.229Z,98282.27
2022-09-18T18:09:17.338Z,98284.28
2022-09-18T18:11:46.453Z,98282.91
2022-09-18T18:14:16.253Z,98286.16
2022-09-18T18:16:50.780Z,98290.14
2022-09-18T18:19:21.279Z,98291.96
2022-09-18T18:21:49.307Z,98294.24
2022-09-18T18:24:19.049Z,98295.60
2022-09-18T18:26:48.663Z,98296.65
2022-09-18T18:29:19.598Z,98298.16
2022-09-18T18:31:49.426Z,98300.38
2022-09-18T18:34:21.429Z,98290.45
2022-09-18T18:36:51.327Z,98289.39
2022-09-18T18:39:22.167Z,98289.04
2022-09-18T18:42:10.490Z,98289.07
2022-09-18T18:44:42.781Z,98283.66
2022-09-18T18:47:11.444Z,98280.52
2022-09-18T18:49:40.454Z,98283.99
2022-09-18T18:52:09.196Z,98283.21
2022-09-18T18:54:38.018Z,98284.00
2022-09-18T18:57:07.143Z,98276.77
2022-09-18T18:59:35.713Z,98275.66
2022-09-18T19:02:04.103Z,98279.11
2022-09-18T19:04:35.264Z,98276.21
2022-09-18T19:07:04.556Z,98272.22
2022-09-18T19:09:34.081Z,98274.31
2022-09-18T19:12:04.629Z,98272.33
2022-09-18T19:14:34.622Z,98267.97
2022-09-18T19:17:03.831Z,98268.14
2022-09-18T19:19:32.102Z,98267.98
2022-09-18T19:22:00.513Z,98265.14
2022-09-18T19:24:30.870Z,98261.05
2022-09-18T19:26:59.379Z,98260.16
2022-09-18T19:29:28.118Z,98257.81
2022-09-18T19:31:57.665Z,98257.83
2022-09-18T19:34:27.647Z,98263.27
2022-09-18T19:36:58.942Z,98261.02
2022-09-18T19:39:29.147Z,98257.36
2022-09-18T19:42:12.357Z,98251.79
2022-09-18T19:44:45.561Z,98256.03
2022-09-18T19:47:26.570Z,98250.18
2022-09-18T19:49:57.127Z,98250.90
2022-09-18T19:52:30.579Z,98252.95
2022-09-18T19:54:59.096Z,98256.17
2022-09-18T19:57:28.676Z,98261.69
2022-09-18T19:59:57.450Z,98258.27
2022-09-18T20:02:27.078Z,98259.23
2022-09-18T20:04:56.954Z,98262.02
2022-09-18T20:07:24.890Z,98262.30
2022-09-18T20:09:52.719Z,98263.43
2022-09-18T20:12:20.716Z,98263.15
2022-09-18T20:14:48.938Z,98261.84
2022-09-18T20:17:16.759Z,98256.63
2022-09-18T20:19:45.558Z,98259.84
2022-09-18T20:22:13.342Z,98258.39
2022-09-18T20:24:41.732Z,98256.98
2022-09-18T20:27:09.896Z,98257.46
2022-09-18T20:29:38.084Z,98260.76
2022-09-18T20:32:06.033Z,98253.68
2022-09-18T20:34:34.521Z,98256.77
2022-09-18T20:37:04.070Z,98254.80
2022-09-18T20:39:32.644Z,98258.49
2022-09-18T20:42:01.768Z,98255.46
2022-09-18T20:44:30.376Z,98255.39
2022-09-18T20:46:58.253Z,98253.23
2022-09-18T20:49:26.761Z,98258.44
2022-09-18T20:51:55.391Z,98260.17
2022-09-18T20:54:24.657Z,98252.80
2022-09-18T20:56:54.427Z,98250.60
2022-09-18T20:59:25.018Z,98251.09
2022-09-18T21:01:53.241Z,98245.65
2022-09-18T21:04:21.685Z,98243.48
2022-09-18T21:06:56.300Z,98243.39
2022-09-18T21:09:26.553Z,98245.52
2022-09-18T21:11:56.909Z,98244.16
2022-09-18T21:14:25.639Z,98248.45
2022-09-18T21:16:54.327Z,98246.34
2022-09-18T21:19:24.486Z,98244.89
2022-09-18T21:21:52.286Z,98242.16
2022-09-18T21:24:21.282Z,98246.13
2022-09-18T21:26:50.170Z,98246.56
2022-09-18T21:29:29.975Z,98245.73
2022-09-18T21:32:00.334Z,98246.03
2022-09-18T21:34:31.111Z,98244.02
2022-09-18T21:37:05.182Z,98242.09
2022-09-18T21:39:34.142Z,98245.25
2022-09-18T21:42:04.874Z,98247.53
2022-09-18T21:44:37.257Z,98249.04
2022-09-18T21:47:07.501Z,98254.96
2022-09-18T21:49:35.754Z,98257.52
2022-09-18T21:52:05.870Z,98259.34
2022-09-18T21:54:34.219Z,98265.27
2022-09-18T21:57:03.246Z,98264.81
2022-09-18T21:59:32.264Z,98262.98
2022-09-18T22:02:01.072Z,98261.52
2022-09-18T22:04:33.025Z,98261.98
2022-09-18T22:07:01.885Z,98257.67
2022-09-18T22:09:33.527Z,98253.36
2022-09-18T22:12:02.033Z,98252.04
2022-09-18T22:14:33.066Z,98254.39
2022-09-18T22:17:04.085Z,98255.31
2022-09-18T22:19:33.478Z,98256.61
2022-09-18T22:22:02.118Z,98261.18
2022-09-18T22:24:30.415Z,98256.35
2022-09-18T22:27:02.587Z,98256.89
2022-09-18T22:29:32.648Z,98260.13
2022-09-18T22:32:17.157Z,98252.73
2022-09-18T22:34:45.729Z,98248.53
2022-09-18T22:37:17.606Z,98245.91
2022-09-18T22:39:47.160Z,98249.77
2022-09-18T22:42:16.080Z,98251.06
2022-09-18T22:44:44.604Z,98249.75
2022-09-18T22:47:14.836Z,98250.00
2022-09-18T22:49:43.300Z,98254.77
2022-09-18T22:52:13.142Z,98256.58
2022-09-18T22:54:40.974Z,98252.67
2022-09-18T22:57:09.471Z,98247.79
2022-09-18T22:59:37.645Z,98250.75
2022-09-18T23:02:08.107Z,98248.45
2022-09-18T23:05:38.205Z,98246.52
2022-09-18T23:08:07.349Z,98246.38
2022-09-18T23:10:35.501Z,98251.36
2022-09-18T23:13:04.623Z,98252.09
2022-09-18T23:15:54.704Z,98255.91
2022-09-18T23:18:23.414Z,98258.42
2022-09-18T23:20:52.039Z,98256.22
2022-09-18T23:23:25.585Z,98256.35
2022-09-18T23:26:41.686Z,98257.88
2022-09-18T23:29:13.101Z,98256.92
2022-09-18T23:31:44.498Z,98255.77
2022-09-18T23:34:33.813Z,98255.36
2022-09-18T23:37:05.024Z,98255.52
2022-09-18T23:39:47.181Z,98255.16
2022-09-18T23:42:16.162Z,98254.77
2022-09-18T23:44:45.851Z,98252.63
2022-09-18T23:47:14.019Z,98248.81
2022-09-18T23:50:42.609Z,98248.07
2022-09-18T23:54:44.640Z,98244.52
2022-09-18T23:57:14.865Z,98243.95
2022-09-18T23:59:45.621Z,98242.08
